createdAt,value
2022-11-08T00:02:05.327Z,98554.31
2022-11-08T00:05:25.945Z,98559.06
2022-11-08T00:08:46.386Z,98563.38
2022-11-08T00:12:06.832Z,98558.56
2022-11-08T00:15:10.418Z,98559.75
2022-11-08T00:18:14.387Z,98558.97
2022-11-08T00:21:16.963Z,98551.88
2022-11-08T00:24:19.559Z,98544.13
2022-11-08T00:27:23.643Z,98548.47
2022-11-08T00:30:26.177Z,98540.03
2022-11-08T00:33:30.113Z,98544.34
2022-11-08T00:36:32.736Z,98548.06
2022-11-08T00:39:35.663Z,98544.66
2022-11-08T00:42:38.350Z,98539.41
2022-11-08T00:45:41.029Z,98539.00
2022-11-08T00:48:45.071Z,98531.69
2022-11-08T00:51:47.708Z,98536.19
2022-11-08T00:54:50.299Z,98533.88
2022-11-08T00:57:59.768Z,98529.25
2022-11-08T01:01:10.428Z,98526.84
2022-11-08T01:04:17.187Z,98525.44
2022-11-08T01:07:19.967Z,98522.22
2022-11-08T01:10:22.550Z,98516.97
2022-11-08T01:13:25.103Z,98513.63
2022-11-08T01:16:29.338Z,98508.81
2022-11-08T01:19:33.530Z,98520.66
2022-11-08T01:22:36.094Z,98508.22
2022-11-08T01:25:38.674Z,98500.06
2022-11-08T01:28:41.604Z,98498.84
2022-11-08T01:31:44.128Z,98505.97
2022-11-08T01:34:48.155Z,98502.34
2022-11-08T01:37:52.092Z,98495.81
2022-11-08T01:40:54.973Z,98500.53
2022-11-08T01:43:58.082Z,98493.63
2022-11-08T01:47:00.730Z,98486.50
2022-11-08T01:50:07.330Z,98486.09
2022-11-08T01:53:09.944Z,98477.22
2022-11-08T01:56:13.974Z,98475.44
2022-11-08T01:59:17.540Z,98470.69
2022-11-08T02:02:20.713Z,98463.25
2022-11-08T02:05:27.931Z,98448.06
2022-11-08T02:08:34.377Z,98444.34
2022-11-08T02:11:37.272Z,98446.56
2022-11-08T02:14:39.905Z,98441.72
2022-11-08T02:17:42.541Z,98440.69
2022-11-08T02:20:52.289Z,98437.63
2022-11-08T02:23:57.682Z,98435.50
2022-11-08T02:27:00.715Z,98436.91
2022-11-08T02:30:03.339Z,98428.94
2022-11-08T02:33:15.589Z,98424.50
2022-11-08T02:36:20.725Z,98424.06
2022-11-08T02:39:24.885Z,98417.28
2022-11-08T02:42:27.534Z,98413.53
2022-11-08T02:45:30.139Z,98417.03
2022-11-08T02:48:32.718Z,98410.81
2022-11-08T02:51:35.295Z,98404.47
2022-11-08T02:54:39.253Z,98403.25
2022-11-08T02:57:41.876Z,98405.16
2022-11-08T03:00:44.497Z,98406.84
2022-11-08T03:03:47.059Z,98407.94
2022-11-08T03:06:49.635Z,98391.66
2022-11-08T03:09:53.519Z,98390.78
2022-11-08T03:12:56.779Z,98400.03
2022-11-08T03:15:59.471Z,98401.53
2022-11-08T03:19:02.204Z,98393.88
2022-11-08T03:22:04.751Z,98399.38
2022-11-08T03:25:09.462Z,98395.25
2022-11-08T03:28:12.009Z,98399.16
2022-11-08T03:31:14.578Z,98406.06
2022-11-08T03:34:17.268Z,98407.09
2022-11-08T03:37:20.109Z,98403.34
2022-11-08T03:40:24.982Z,98408.47
2022-11-08T03:43:27.712Z,98402.09
2022-11-08T03:46:30.269Z,98401.69
2022-11-08T03:49:32.820Z,98410.91
2022-11-08T03:52:41.308Z,98403.59
2022-11-08T03:55:45.198Z,98400.06
2022-11-08T03:58:47.973Z,98395.66
2022-11-08T04:01:50.778Z,98393.84
2022-11-08T04:04:53.505Z,98396.09
2022-11-08T04:07:56.071Z,98397.22
2022-11-08T04:11:21.408Z,98389.88
2022-11-08T04:14:41.464Z,98400.00
2022-11-08T04:18:02.723Z,98395.22
2022-11-08T04:21:21.853Z,98393.25
2022-11-08T04:24:24.834Z,98396.38
2022-11-08T04:27:28.800Z,98385.78
2022-11-08T04:30:31.649Z,98395.22
2022-11-08T04:33:34.381Z,98396.25
2022-11-08T04:36:37.548Z,98378.72
2022-11-08T04:39:40.128Z,98382.63
2022-11-08T04:42:46.167Z,98377.97
2022-11-08T04:45:48.836Z,98372.91
2022-11-08T04:48:52.684Z,98372.06
2022-11-08T04:51:55.281Z,98361.72
2022-11-08T04:54:57.933Z,98357.56
2022-11-08T04:58:01.863Z,98353.06
2022-11-08T05:01:06.092Z,98356.28
2022-11-08T05:04:15.133Z,98349.06
2022-11-08T05:07:17.677Z,98351.88
2022-11-08T05:10:20.392Z,98335.69
2022-11-08T05:13:24.425Z,98334.16
2022-11-08T05:16:28.341Z,98334.13
2022-11-08T05:19:48.753Z,98332.75
2022-11-08T05:23:08.876Z,98332.13
2022-11-08T05:26:11.630Z,98345.69
2022-11-08T05:29:16.731Z,98343.84
2022-11-08T05:32:19.452Z,98343.59
2022-11-08T05:35:23.005Z,98347.16
2022-11-08T05:38:25.635Z,98345.56
2022-11-08T05:41:28.392Z,98346.00
2022-11-08T05:44:32.427Z,98341.66
2022-11-08T05:47:35.129Z,98334.88
2022-11-08T05:50:37.782Z,98331.78
2022-11-08T05:53:40.870Z,98333.94
2022-11-08T05:56:43.475Z,98336.97
2022-11-08T05:59:47.368Z,98333.16
2022-11-08T06:02:50.006Z,98341.38
2022-11-08T06:06:13.214Z,98333.75
2022-11-08T06:09:15.772Z,98331.41
2022-11-08T06:12:18.873Z,98339.34
2022-11-08T06:15:22.784Z,98322.50
2022-11-08T06:18:25.415Z,98329.50
2022-11-08T06:21:28.613Z,98334.44
2022-11-08T06:24:31.371Z,98326.81
2022-11-08T06:27:34.032Z,98326.31
2022-11-08T06:30:38.109Z,98324.09
2022-11-08T06:33:40.868Z,98336.84
2022-11-08T06:36:43.464Z,98322.50
2022-11-08T06:39:46.115Z,98334.72
2022-11-08T06:42:48.904Z,98338.75
2022-11-08T06:45:53.997Z,98340.19
2022-11-08T06:48:56.752Z,98336.88
2022-11-08T06:51:59.400Z,98331.69
2022-11-08T06:55:02.081Z,98335.59
2022-11-08T06:58:05.921Z,98336.00
2022-11-08T07:01:11.526Z,98329.94
2022-11-08T07:04:14.169Z,98337.59
2022-11-08T07:07:16.815Z,98332.25
2022-11-08T07:10:19.741Z,98334.47
2022-11-08T07:13:22.526Z,98332.78
2022-11-08T07:16:26.746Z,98334.91
2022-11-08T07:19:29.483Z,98337.28
2022-11-08T07:22:32.217Z,98353.97
2022-11-08T07:25:35.572Z,98351.41
2022-11-08T07:28:38.186Z,98348.66
2022-11-08T07:31:42.188Z,98348.22
2022-11-08T07:34:45.957Z,98349.44
2022-11-08T07:37:48.412Z,98363.38
2022-11-08T07:40:51.521Z,98361.31
2022-11-08T07:43:54.244Z,98357.59
2022-11-08T07:46:58.212Z,98360.59
2022-11-08T07:50:00.843Z,98354.38
2022-11-08T07:53:03.466Z,98338.38
2022-11-08T07:56:06.412Z,98330.22
2022-11-08T07:59:09.143Z,98323.34
2022-11-08T08:02:13.634Z,98300.59
2022-11-08T08:05:16.328Z,98295.84
2022-11-08T08:08:19.129Z,98286.59
2022-11-08T08:11:21.875Z,98290.13
2022-11-08T08:14:24.547Z,98305.63
2022-11-08T08:17:28.779Z,98307.03
2022-11-08T08:20:31.855Z,98320.81
2022-11-08T08:23:34.684Z,98327.28
2022-11-08T08:26:37.305Z,98329.41
2022-11-08T08:29:39.846Z,98346.75
2022-11-08T08:32:43.810Z,98346.81
2022-11-08T08:35:46.417Z,98346.28
2022-11-08T08:38:49.033Z,98342.19
2022-11-08T08:41:51.647Z,98336.19
2022-11-08T08:44:54.501Z,98340.59
2022-11-08T08:47:59.087Z,98347.66
2022-11-08T08:51:01.667Z,98343.50
2022-11-08T08:54:04.297Z,98340.88
2022-11-08T08:57:06.842Z,98336.34
2022-11-08T09:03:35.793Z,98344.38
2022-11-08T09:06:38.376Z,98336.25
2022-11-08T09:09:41.081Z,98342.81
2022-11-08T09:12:43.709Z,98349.66
2022-11-08T09:15:46.324Z,98357.53
2022-11-08T09:18:50.341Z,98350.81
2022-11-08T09:21:53.115Z,98351.59
2022-11-08T09:24:55.740Z,98364.94
2022-11-08T09:28:00.372Z,98361.56
2022-11-08T09:31:04.624Z,98359.84
2022-11-08T09:34:08.526Z,98354.22
2022-11-08T09:37:11.114Z,98357.84
2022-11-08T09:43:36.427Z,98360.66
2022-11-08T09:46:42.729Z,98375.31
2022-11-08T09:49:48.649Z,98371.84
2022-11-08T09:52:55.380Z,98371.53
2022-11-08T09:56:00.217Z,98359.63
2022-11-08T09:59:11.427Z,98363.94
2022-11-08T10:02:18.721Z,98362.28
2022-11-08T10:05:22.981Z,98362.09
2022-11-08T10:08:31.261Z,98356.09
2022-11-08T10:11:54.590Z,98359.19
2022-11-08T10:15:10.092Z,98359.59
2022-11-08T10:18:39.966Z,98354.75
2022-11-08T10:21:54.800Z,98354.56
2022-11-08T10:25:01.628Z,98353.75
2022-11-08T10:28:04.716Z,98355.47
2022-11-08T10:31:07.630Z,98339.50
2022-11-08T10:34:15.018Z,98341.16
2022-11-08T10:37:19.071Z,98335.59
2022-11-08T10:40:29.985Z,98341.34
2022-11-08T10:43:35.942Z,98337.59
2022-11-08T10:46:41.816Z,98333.53
2022-11-08T10:49:44.940Z,98328.19
2022-11-08T10:52:54.827Z,98334.56
2022-11-08T10:56:00.659Z,98325.22
2022-11-08T10:59:03.192Z,98325.38
2022-11-08T11:02:19.307Z,98321.19
2022-11-08T11:05:25.862Z,98323.81
2022-11-08T11:08:30.168Z,98331.94
2022-11-08T11:11:37.519Z,98322.09
2022-11-08T11:14:40.631Z,98319.09
2022-11-08T11:17:45.796Z,98318.31
2022-11-08T11:21:02.292Z,98317.91
2022-11-08T11:24:15.341Z,98311.75
2022-11-08T11:27:24.044Z,98315.47
2022-11-08T11:30:33.537Z,98302.69
2022-11-08T11:33:44.556Z,98301.97
2022-11-08T11:36:50.947Z,98287.56
2022-11-08T11:40:02.344Z,98278.41
2022-11-08T11:43:10.260Z,98275.53
2022-11-08T11:46:17.591Z,98277.28
2022-11-08T11:49:21.690Z,98277.13
2022-11-08T11:52:24.368Z,98273.63
2022-11-08T11:55:42.010Z,98265.75
2022-11-08T11:58:57.696Z,98264.56
2022-11-08T12:02:14.495Z,98262.59
2022-11-08T12:05:28.460Z,98266.53
2022-11-08T12:08:37.037Z,98266.84
2022-11-08T12:11:54.345Z,98264.78
2022-11-08T12:15:01.999Z,98260.84
2022-11-08T12:18:42.176Z,98262.13
2022-11-08T12:21:52.276Z,98252.28
2022-11-08T12:24:59.575Z,98254.25
2022-11-08T12:28:13.517Z,98252.19
2022-11-08T12:31:25.626Z,98249.72
2022-11-08T12:34:32.273Z,98239.34
2022-11-08T12:37:45.830Z,98241.88
2022-11-08T12:40:52.574Z,98238.13
2022-11-08T12:44:21.252Z,98236.31
2022-11-08T12:47:32.290Z,98236.47
2022-11-08T12:50:39.466Z,98229.72
2022-11-08T12:54:04.884Z,98230.16
2022-11-08T12:57:11.993Z,98211.28
2022-11-08T13:00:18.787Z,98216.06
2022-11-08T13:03:37.752Z,98209.44
2022-11-08T13:06:44.695Z,98207.47
2022-11-08T13:09:52.894Z,98204.88
2022-11-08T13:13:06.728Z,98205.06
2022-11-08T13:16:15.766Z,98208.00
2022-11-08T13:19:29.036Z,98195.03
2022-11-08T13:22:45.200Z,98198.97
2022-11-08T13:25:48.309Z,98201.63
2022-11-08T13:28:51.435Z,98198.25
2022-11-08T13:31:55.840Z,98192.69
2022-11-08T13:35:04.890Z,98199.84
2022-11-08T13:38:19.711Z,98203.44
2022-11-08T13:41:24.593Z,98196.34
2022-11-08T13:44:57.079Z,98194.03
2022-11-08T13:48:13.537Z,98197.91
2022-11-08T13:51:29.862Z,98195.81
2022-11-08T13:54:49.425Z,98197.13
2022-11-08T13:57:58.319Z,98193.44
2022-11-08T14:01:01.796Z,98191.75
2022-11-08T14:04:24.108Z,98194.00
2022-11-08T14:07:31.091Z,98187.63
2022-11-08T14:10:39.866Z,98190.63
2022-11-08T14:14:07.217Z,98189.84
2022-11-08T14:17:28.412Z,98191.41
2022-11-08T14:20:35.804Z,98184.31
2022-11-08T14:23:40.858Z,98183.88
2022-11-08T14:26:46.376Z,98185.13
2022-11-08T14:30:00.102Z,98185.84
2022-11-08T14:33:07.979Z,98189.78
2022-11-08T14:36:16.639Z,98193.16
2022-11-08T14:39:19.794Z,98196.50
2022-11-08T14:42:24.318Z,98191.56
2022-11-08T14:45:29.869Z,98189.09
2022-11-08T14:48:32.536Z,98196.53
2022-11-08T14:51:36.608Z,98192.78
2022-11-08T14:54:40.554Z,98186.03
2022-11-08T14:57:44.105Z,98185.56
2022-11-08T15:00:47.489Z,98182.66
2022-11-08T15:03:52.828Z,98182.88
2022-11-08T15:06:59.053Z,98186.47
2022-11-08T15:10:08.441Z,98183.47
2022-11-08T15:13:11.437Z,98171.13
2022-11-08T15:16:15.295Z,98173.41
2022-11-08T15:19:29.534Z,98162.56
2022-11-08T15:22:34.343Z,98166.31
2022-11-08T15:25:38.199Z,98168.31
2022-11-08T15:28:40.754Z,98168.28
2022-11-08T15:31:44.946Z,98170.88
2022-11-08T15:34:48.315Z,98163.56
2022-11-08T15:37:52.842Z,98157.44
2022-11-08T15:40:57.844Z,98165.47
2022-11-08T15:44:19.309Z,98173.88
2022-11-08T15:47:40.655Z,98170.66
2022-11-08T15:50:43.238Z,98174.13
2022-11-08T15:53:47.146Z,98162.06
2022-11-08T15:56:51.015Z,98156.09
2022-11-08T15:59:53.602Z,98158.28
2022-11-08T16:02:56.235Z,98152.22
2022-11-08T16:05:59.048Z,98161.94
2022-11-08T16:09:03.064Z,98166.97
2022-11-08T16:12:06.225Z,98167.91
2022-11-08T16:15:12.640Z,98166.00
2022-11-08T16:18:16.642Z,98175.59
2022-11-08T16:21:19.500Z,98173.56
2022-11-08T16:24:23.478Z,98173.25
2022-11-08T16:27:26.141Z,98181.69
2022-11-08T16:30:28.748Z,98174.97
2022-11-08T16:33:32.933Z,98170.72
2022-11-08T16:36:35.536Z,98167.06
2022-11-08T16:39:39.593Z,98179.97
2022-11-08T16:42:42.236Z,98173.59
2022-11-08T16:46:04.297Z,98166.28
2022-11-08T16:49:08.355Z,98162.63
2022-11-08T16:52:11.629Z,98163.06
2022-11-08T16:55:17.919Z,98160.66
2022-11-08T16:58:20.822Z,98157.00
2022-11-08T17:01:27.456Z,98156.94
2022-11-08T17:04:30.266Z,98152.81
2022-11-08T17:07:32.968Z,98147.72
2022-11-08T17:10:36.966Z,98147.72
2022-11-08T17:13:40.678Z,98157.09
2022-11-08T17:16:43.459Z,98158.47
2022-11-08T17:19:46.215Z,98167.22
2022-11-08T17:22:49.673Z,98165.97
2022-11-08T17:25:53.706Z,98163.50
2022-11-08T17:28:56.986Z,98177.38
2022-11-08T17:31:59.641Z,98181.25
2022-11-08T17:35:02.478Z,98172.13
2022-11-08T17:38:05.099Z,98180.91
2022-11-08T17:41:10.886Z,98180.81
2022-11-08T17:44:14.326Z,98182.59
2022-11-08T17:47:17.175Z,98188.63
2022-11-08T17:50:19.902Z,98184.19
2022-11-08T17:53:22.593Z,98186.75
2022-11-08T17:56:26.583Z,98187.25
2022-11-08T17:59:29.224Z,98187.81
2022-11-08T18:02:34.437Z,98188.31
2022-11-08T18:05:37.284Z,98191.00
2022-11-08T18:08:40.400Z,98185.69
2022-11-08T18:11:47.878Z,98183.84
2022-11-08T18:14:50.472Z,98183.50
2022-11-08T18:17:53.071Z,98182.50
2022-11-08T18:20:56.387Z,98181.34
2022-11-08T18:23:59.920Z,98183.19
2022-11-08T18:27:03.836Z,98189.91
2022-11-08T18:30:07.558Z,98191.72
2022-11-08T18:33:10.714Z,98194.94
2022-11-08T18:36:16.755Z,98199.72
2022-11-08T18:39:20.008Z,98198.13
2022-11-08T18:42:24.171Z,98205.53
2022-11-08T18:45:26.779Z,98203.22
2022-11-08T18:48:29.477Z,98201.50
2022-11-08T18:51:32.848Z,98203.19
2022-11-08T18:54:35.677Z,98197.44
2022-11-08T18:57:39.872Z,98203.03
2022-11-08T19:00:42.787Z,98202.63
2022-11-08T19:03:45.723Z,98203.47
2022-11-08T19:06:54.160Z,98213.06
2022-11-08T19:09:57.332Z,98215.91
2022-11-08T19:13:01.457Z,98212.31
2022-11-08T19:16:05.911Z,98213.84
2022-11-08T19:19:08.570Z,98205.19
2022-11-08T19:22:12.135Z,98191.97
2022-11-08T19:25:14.808Z,98195.38
2022-11-08T19:28:18.766Z,98194.59
2022-11-08T19:31:22.410Z,98191.97
2022-11-08T19:34:24.866Z,98202.00
2022-11-08T19:37:27.507Z,98190.41
2022-11-08T19:40:32.284Z,98185.97
2022-11-08T19:43:37.286Z,98181.78
2022-11-08T19:46:40.740Z,98181.53
2022-11-08T19:49:43.317Z,98178.59
2022-11-08T19:52:45.986Z,98180.88
2022-11-08T19:55:48.624Z,98177.22
2022-11-08T19:58:53.014Z,98188.13
2022-11-08T20:01:55.756Z,98195.16
2022-11-08T20:04:58.848Z,98191.31
2022-11-08T20:08:05.918Z,98180.81
2022-11-08T20:11:12.537Z,98187.63
2022-11-08T20:14:16.518Z,98196.78
2022-11-08T20:17:19.164Z,98197.69
2022-11-08T20:20:22.048Z,98198.03
2022-11-08T20:23:25.693Z,98205.09
2022-11-08T20:26:28.273Z,98217.03
2022-11-08T20:29:32.649Z,98215.44
2022-11-08T20:32:35.277Z,98223.97
2022-11-08T20:35:38.749Z,98214.97
2022-11-08T20:38:42.090Z,98216.13
2022-11-08T20:41:44.775Z,98209.16
2022-11-08T20:44:48.987Z,98203.13
2022-11-08T20:47:51.556Z,98215.16
2022-11-08T20:50:57.955Z,98208.44
2022-11-08T20:54:01.444Z,98207.94
2022-11-08T20:57:04.192Z,98206.94
2022-11-08T21:00:13.646Z,98210.34
2022-11-08T21:03:19.107Z,98202.69
2022-11-08T21:06:23.094Z,98211.00
2022-11-08T21:09:37.521Z,98206.78
2022-11-08T21:12:45.067Z,98209.06
2022-11-08T21:15:50.326Z,98193.97
2022-11-08T21:18:52.902Z,98198.66
2022-11-08T21:22:14.830Z,98192.84
2022-11-08T21:25:17.591Z,98196.84
2022-11-08T21:28:20.444Z,98195.91
2022-11-08T21:31:24.599Z,98192.84
2022-11-08T21:34:32.183Z,98206.78
2022-11-08T21:37:35.213Z,98200.75
2022-11-08T21:40:39.106Z,98204.03
2022-11-08T21:43:44.061Z,98203.63
2022-11-08T21:46:48.042Z,98206.91
2022-11-08T21:49:50.654Z,98217.00
2022-11-08T21:52:53.534Z,98211.38
2022-11-08T21:55:58.162Z,98214.34
2022-11-08T21:59:01.259Z,98225.78
2022-11-08T22:02:05.552Z,98217.81
2022-11-08T22:05:09.649Z,98221.06
2022-11-08T22:08:12.322Z,98220.31
2022-11-08T22:11:15.085Z,98218.56
2022-11-08T22:14:17.824Z,98222.19
2022-11-08T22:17:22.559Z,98229.09
2022-11-08T22:20:26.041Z,98222.69
2022-11-08T22:23:28.740Z,98229.16
2022-11-08T22:26:31.388Z,98223.94
2022-11-08T22:29:34.317Z,98221.44
2022-11-08T22:32:38.308Z,98213.28
2022-11-08T22:35:41.088Z,98226.94
2022-11-08T22:38:43.790Z,98218.91
2022-11-08T22:41:48.523Z,98228.84
2022-11-08T22:44:51.472Z,98227.03
2022-11-08T22:47:55.539Z,98229.06
2022-11-08T22:50:58.513Z,98215.16
2022-11-08T22:54:01.754Z,98209.25
2022-11-08T22:57:04.959Z,98199.03
2022-11-08T23:00:10.022Z,98200.00
2022-11-08T23:03:14.376Z,98200.19
2022-11-08T23:06:17.090Z,98199.38
2022-11-08T23:09:20.021Z,98198.75
2022-11-08T23:12:40.297Z,98197.00
2022-11-08T23:16:00.341Z,98190.41
2022-11-08T23:19:23.960Z,98184.88
2022-11-08T23:22:44.091Z,98184.34
2022-11-08T23:25:46.911Z,98190.09
2022-11-08T23:29:07.102Z,98190.09
2022-11-08T23:32:09.680Z,98187.00
2022-11-08T23:35:14.419Z,98183.81
2022-11-08T23:38:20.165Z,98189.09
2022-11-08T23:41:43.088Z,98199.00
2022-11-08T23:44:45.967Z,98190.84
2022-11-08T23:47:48.629Z,98193.72
2022-11-08T23:50:54.501Z,98200.19
2022-11-08T23:53:57.351Z,98203.25
2022-11-08T23:56:59.955Z,98207.09
